createdAt,value
2023-02-18T00:01:00.305Z,101495.72
2023-02-18T00:03:30.534Z,101493.09
2023-02-18T00:05:57.233Z,101489.63
2023-02-18T00:08:23.863Z,101487.84
2023-02-18T00:10:51.104Z,101489.63
2023-02-18T00:13:17.628Z,101484.38
2023-02-18T00:15:44.201Z,101490.47
2023-02-18T00:18:10.666Z,101482.59
2023-02-18T00:20:39.443Z,101480.88
2023-02-18T00:23:05.989Z,101470.41
2023-02-18T00:25:32.443Z,101467.78
2023-02-18T00:27:58.916Z,101468.66
2023-02-18T00:30:25.569Z,101467.81
2023-02-18T00:32:52.095Z,101457.34
2023-02-18T00:35:18.545Z,101452.13
2023-02-18T00:37:44.999Z,101446.00
2023-02-18T00:40:11.830Z,101441.63
2023-02-18T00:42:38.289Z,101445.13
2023-02-18T00:45:05.036Z,101452.09
2023-02-18T00:47:31.485Z,101455.59
2023-02-18T00:49:57.923Z,101455.59
2023-02-18T00:52:25.294Z,101450.38
2023-02-18T00:54:51.800Z,101459.09
2023-02-18T00:57:18.310Z,101452.13
2023-02-18T00:59:44.890Z,101448.63
2023-02-18T01:02:11.440Z,101446.00
2023-02-18T01:04:37.927Z,101441.66
2023-02-18T01:07:04.491Z,101444.25
2023-02-18T01:09:30.961Z,101426.81
2023-02-18T01:11:57.421Z,101426.78
2023-02-18T01:14:24.010Z,101418.94
2023-02-18T01:16:50.458Z,101411.06
2023-02-18T01:19:17.056Z,101415.44
2023-02-18T01:21:43.501Z,101410.22
2023-02-18T01:24:09.941Z,101411.09
2023-02-18T01:26:36.631Z,101424.19
2023-02-18T01:29:03.274Z,101407.59
2023-02-18T01:31:29.986Z,101413.72
2023-02-18T01:33:56.475Z,101414.59
2023-02-18T01:36:22.996Z,101418.97
2023-02-18T01:38:49.520Z,101410.22
2023-02-18T01:41:16.050Z,101402.38
2023-02-18T01:43:42.567Z,101404.97
2023-02-18T01:46:17.160Z,101396.28
2023-02-18T01:48:57.157Z,101392.78
2023-02-18T01:51:37.548Z,101393.69
2023-02-18T01:54:07.176Z,101391.94
2023-02-18T01:56:47.060Z,101383.19
2023-02-18T01:59:18.724Z,101385.81
2023-02-18T02:01:46.176Z,101383.19
2023-02-18T02:04:13.356Z,101377.97
2023-02-18T02:06:39.841Z,101378.84
2023-02-18T02:09:09.996Z,101373.63
2023-02-18T02:12:08.874Z,101369.25
2023-02-18T02:15:02.208Z,101370.13
2023-02-18T02:17:42.566Z,101364.88
2023-02-18T02:20:45.745Z,101363.19
2023-02-18T02:23:27.408Z,101366.69
2023-02-18T02:26:12.216Z,101363.19
2023-02-18T02:29:06.544Z,101357.97
2023-02-18T02:31:50.230Z,101363.25
2023-02-18T02:34:28.333Z,101355.44
2023-02-18T02:37:13.611Z,101351.94
2023-02-18T02:40:07.549Z,101341.47
2023-02-18T02:42:55.236Z,101345.84
2023-02-18T02:45:36.146Z,101334.53
2023-02-18T02:48:18.361Z,101346.78
2023-02-18T02:50:52.888Z,101358.13
2023-02-18T02:53:24.752Z,101334.59
2023-02-18T02:55:51.253Z,101338.94
2023-02-18T02:58:19.538Z,101336.34
2023-02-18T03:01:00.136Z,101338.13
2023-02-18T03:03:51.035Z,101328.50
2023-02-18T03:06:29.921Z,101320.66
2023-02-18T03:09:18.135Z,101325.88
2023-02-18T03:12:02.952Z,101314.56
2023-02-18T03:14:35.827Z,101324.16
2023-02-18T03:17:14.634Z,101304.97
2023-02-18T03:19:52.802Z,101305.84
2023-02-18T03:22:27.026Z,101314.53
2023-02-18T03:24:56.410Z,101300.56
2023-02-18T03:27:25.895Z,101305.78
2023-02-18T03:30:11.702Z,101297.06
2023-02-18T03:32:38.201Z,101297.03
2023-02-18T03:35:14.947Z,101286.56
2023-02-18T03:38:02.643Z,101288.31
2023-02-18T03:40:30.658Z,101287.44
2023-02-18T03:43:00.160Z,101284.81
2023-02-18T03:45:27.443Z,101285.69
2023-02-18T03:47:54.179Z,101285.69
2023-02-18T03:50:20.612Z,101263.91
2023-02-18T03:52:47.242Z,101270.03
2023-02-18T03:55:13.869Z,101263.06
2023-02-18T03:57:40.387Z,101257.84
2023-02-18T04:00:07.533Z,101252.63
2023-02-18T04:02:34.070Z,101243.94
2023-02-18T04:05:00.494Z,101260.53
2023-02-18T04:07:27.224Z,101243.09
2023-02-18T04:09:53.681Z,101244.84
2023-02-18T04:12:20.121Z,101240.47
2023-02-18T04:14:46.587Z,101238.75
2023-02-18T04:17:13.028Z,101233.50
2023-02-18T04:19:39.503Z,101223.94
2023-02-18T04:22:05.984Z,101231.78
2023-02-18T04:24:32.390Z,101235.25
2023-02-18T04:26:58.843Z,101228.31
2023-02-18T04:29:25.438Z,101220.44
2023-02-18T04:31:51.931Z,101221.34
2023-02-18T04:34:18.427Z,101222.22
2023-02-18T04:36:44.999Z,101221.34
2023-02-18T04:39:11.583Z,101225.69
2023-02-18T04:41:38.066Z,101223.09
2023-02-18T04:44:04.553Z,101220.50
2023-02-18T04:46:32.574Z,101212.63
2023-02-18T04:48:59.145Z,101210.91
2023-02-18T04:51:25.672Z,101207.44
2023-02-18T04:53:52.211Z,101211.81
2023-02-18T04:56:18.702Z,101200.47
2023-02-18T04:58:45.136Z,101207.44
2023-02-18T05:01:11.729Z,101212.69
2023-02-18T05:03:38.350Z,101207.47
2023-02-18T05:06:05.109Z,101204.88
2023-02-18T05:08:31.606Z,101185.69
2023-02-18T05:10:58.085Z,101189.16
2023-02-18T05:13:24.620Z,101190.06
2023-02-18T05:15:52.606Z,101195.28
2023-02-18T05:18:19.071Z,101190.06
2023-02-18T05:20:45.558Z,101196.16
2023-02-18T05:23:12.049Z,101178.75
2023-02-18T05:25:38.522Z,101182.25
2023-02-18T05:28:04.973Z,101177.88
2023-02-18T05:30:31.448Z,101164.81
2023-02-18T05:32:57.961Z,101159.56
2023-02-18T05:35:24.468Z,101157.81
2023-02-18T05:37:50.942Z,101153.47
2023-02-18T05:40:17.533Z,101139.53
2023-02-18T05:42:43.980Z,101156.09
2023-02-18T05:45:11.474Z,101145.63
2023-02-18T05:47:37.918Z,101150.88
2023-02-18T05:50:05.442Z,101151.75
2023-02-18T05:52:31.904Z,101138.66
2023-02-18T05:54:58.441Z,101153.50
2023-02-18T05:57:26.354Z,101136.03
2023-02-18T05:59:52.829Z,101136.06
2023-02-18T06:02:19.341Z,101125.63
2023-02-18T06:04:45.807Z,101135.22
2023-02-18T06:07:12.302Z,101127.38
2023-02-18T06:09:38.851Z,101123.88
2023-02-18T06:12:05.645Z,101124.75
2023-02-18T06:14:32.267Z,101126.50
2023-02-18T06:16:58.769Z,101133.47
2023-02-18T06:19:25.221Z,101130.88
2023-02-18T06:21:51.754Z,101131.75
2023-02-18T06:24:18.224Z,101135.22
2023-02-18T06:26:44.623Z,101135.22
2023-02-18T06:29:11.084Z,101140.44
2023-02-18T06:31:37.638Z,101141.31
2023-02-18T06:34:04.145Z,101131.72
2023-02-18T06:36:30.808Z,101136.06
2023-02-18T06:38:59.219Z,101125.59
2023-02-18T06:41:25.885Z,101127.31
2023-02-18T06:43:52.407Z,101130.78
2023-02-18T06:46:18.921Z,101127.28
2023-02-18T06:48:45.426Z,101115.91
2023-02-18T06:51:11.860Z,101135.09
2023-02-18T06:53:38.377Z,101116.81
2023-02-18T06:56:05.089Z,101129.88
2023-02-18T06:58:31.502Z,101130.72
2023-02-18T07:00:58.445Z,101122.88
2023-02-18T07:03:25.135Z,101140.31
2023-02-18T07:05:51.606Z,101142.03
2023-02-18T07:08:18.307Z,101138.56
2023-02-18T07:10:44.815Z,101136.81
2023-02-18T07:13:11.266Z,101142.00
2023-02-18T07:15:37.828Z,101152.47
2023-02-18T07:18:04.537Z,101142.88
2023-02-18T07:20:31.075Z,101148.94
2023-02-18T07:22:57.534Z,101151.53
2023-02-18T07:25:24.062Z,101129.72
2023-02-18T07:27:51.329Z,101139.31
2023-02-18T07:30:19.677Z,101133.19
2023-02-18T07:32:46.207Z,101134.06
2023-02-18T07:35:17.186Z,101129.69
2023-02-18T07:37:48.025Z,101132.31
2023-02-18T07:40:17.646Z,101136.66
2023-02-18T07:42:44.196Z,101141.91
2023-02-18T07:45:11.901Z,101156.78
2023-02-18T07:47:38.406Z,101159.41
2023-02-18T07:50:06.621Z,101163.78
2023-02-18T07:52:33.138Z,101162.91
2023-02-18T07:54:59.639Z,101162.91
2023-02-18T07:57:26.133Z,101178.63
2023-02-18T07:59:52.677Z,101182.97
2023-02-18T08:02:21.654Z,101186.44
2023-02-18T08:04:48.477Z,101170.72
2023-02-18T08:07:16.900Z,101175.13
2023-02-18T08:09:43.433Z,101167.34
2023-02-18T08:12:10.154Z,101186.53
2023-02-18T08:14:36.634Z,101180.50
2023-02-18T08:17:03.163Z,101184.88
2023-02-18T08:19:29.594Z,101204.97
2023-02-18T08:21:56.067Z,101194.59
2023-02-18T08:24:22.656Z,101210.31
2023-02-18T08:27:00.342Z,101195.53
2023-02-18T08:29:27.166Z,101213.00
2023-02-18T08:31:55.128Z,101203.44
2023-02-18T08:34:21.764Z,101205.19
2023-02-18T08:36:48.190Z,101209.59
2023-02-18T08:39:14.655Z,101200.91
2023-02-18T08:41:41.078Z,101201.78
2023-02-18T08:44:07.585Z,101213.97
2023-02-18T08:46:35.728Z,101206.16
2023-02-18T08:49:04.446Z,101214.88
2023-02-18T08:51:31.586Z,101212.28
2023-02-18T08:53:58.448Z,101209.69
2023-02-18T08:56:24.889Z,101207.03
2023-02-18T08:58:51.322Z,101209.69
2023-02-18T09:01:17.937Z,101196.59
2023-02-18T09:03:44.446Z,101192.22
2023-02-18T09:06:10.836Z,101195.72
2023-02-18T09:08:37.326Z,101179.16
2023-02-18T09:11:04.916Z,101185.25
2023-02-18T09:13:32.846Z,101183.50
2023-02-18T09:16:05.071Z,101177.38
2023-02-18T09:18:32.552Z,101179.97
2023-02-18T09:21:00.566Z,101190.41
2023-02-18T09:23:31.531Z,101176.47
2023-02-18T09:25:58.381Z,101175.59
2023-02-18T09:28:26.039Z,101186.03
2023-02-18T09:30:52.639Z,101184.25
2023-02-18T09:33:19.254Z,101179.91
2023-02-18T09:35:46.583Z,101172.91
2023-02-18T09:38:16.628Z,101176.41
2023-02-18T09:40:52.118Z,101164.19
2023-02-18T09:43:43.899Z,101174.66
2023-02-18T09:46:21.628Z,101181.63
2023-02-18T09:48:49.007Z,101172.91
2023-02-18T09:51:16.976Z,101178.13
2023-02-18T09:53:47.346Z,101171.16
2023-02-18T09:56:17.195Z,101172.88
2023-02-18T09:58:45.918Z,101165.00
2023-02-18T10:01:31.233Z,101180.72
2023-02-18T10:04:07.509Z,101158.88
2023-02-18T10:06:35.355Z,101151.03
2023-02-18T10:09:06.154Z,101148.41
2023-02-18T10:11:37.986Z,101150.16
2023-02-18T10:14:11.178Z,101157.13
2023-02-18T10:16:37.749Z,101155.38
2023-02-18T10:19:21.892Z,101160.59
2023-02-18T10:21:49.707Z,101148.38
2023-02-18T10:24:25.015Z,101151.00
2023-02-18T10:26:51.673Z,101146.63
2023-02-18T10:29:21.660Z,101157.03
2023-02-18T10:31:54.828Z,101156.97
2023-02-18T10:34:41.188Z,101164.84
2023-02-18T10:37:13.485Z,101163.13
2023-02-18T10:39:46.057Z,101171.88
2023-02-18T10:42:49.168Z,101207.66
2023-02-18T10:45:21.077Z,101177.22
2023-02-18T10:47:59.164Z,101194.75
2023-02-18T10:50:30.322Z,101193.91
2023-02-18T10:53:02.721Z,101202.59
2023-02-18T10:55:39.858Z,101191.28
2023-02-18T10:58:29.837Z,101194.78
2023-02-18T11:00:56.799Z,101204.38
2023-02-18T11:03:26.157Z,101194.81
2023-02-18T11:05:56.505Z,101187.84
2023-02-18T11:08:28.949Z,101195.72
2023-02-18T11:10:57.258Z,101190.47
2023-02-18T11:13:30.425Z,101187.03
2023-02-18T11:15:59.883Z,101202.72
2023-02-18T11:18:26.316Z,101206.22
2023-02-18T11:21:02.693Z,101189.66
2023-02-18T11:23:29.185Z,101197.50
2023-02-18T11:26:00.740Z,101199.22
2023-02-18T11:28:35.836Z,101201.84
2023-02-18T11:31:03.559Z,101200.09
2023-02-18T11:33:43.467Z,101213.22
2023-02-18T11:36:22.052Z,101197.56
2023-02-18T11:38:52.751Z,101201.88
2023-02-18T11:41:59.430Z,101190.59
2023-02-18T11:44:42.672Z,101190.59
2023-02-18T11:47:13.297Z,101195.81
2023-02-18T11:49:42.277Z,101190.59
2023-02-18T11:52:18.038Z,101187.97
2023-02-18T11:55:00.007Z,101187.97
2023-02-18T11:57:28.138Z,101191.44
2023-02-18T11:59:55.386Z,101196.69
2023-02-18T12:02:36.988Z,101199.25
2023-02-18T12:05:11.716Z,101212.31
2023-02-18T12:07:56.777Z,101201.88
2023-02-18T12:10:36.516Z,101179.22
2023-02-18T12:13:23.326Z,101180.06
2023-02-18T12:16:07.912Z,101179.19
2023-02-18T12:18:47.914Z,101172.22
2023-02-18T12:21:27.306Z,101168.75
2023-02-18T12:24:08.949Z,101176.59
2023-02-18T12:26:58.596Z,101167.88
2023-02-18T12:30:03.666Z,101170.47
2023-02-18T12:32:56.678Z,101166.13
2023-02-18T12:35:47.312Z,101167.84
2023-02-18T12:38:46.371Z,101168.69
2023-02-18T12:41:37.739Z,101166.06
2023-02-18T12:44:23.303Z,101167.81
2023-02-18T12:47:04.091Z,101166.09
2023-02-18T12:49:58.554Z,101164.31
2023-02-18T12:52:50.385Z,101155.59
2023-02-18T12:55:16.780Z,101166.03
2023-02-18T12:57:46.859Z,101170.41
2023-02-18T13:00:54.674Z,101163.41
2023-02-18T13:03:48.636Z,101168.66
2023-02-18T13:06:30.340Z,101165.16
2023-02-18T13:09:22.587Z,101159.94
2023-02-18T13:12:15.273Z,101177.34
2023-02-18T13:15:03.289Z,101166.03
2023-02-18T13:17:36.294Z,101166.91
2023-02-18T13:20:18.592Z,101163.41
2023-02-18T13:22:49.982Z,101168.63
2023-02-18T13:25:18.616Z,101174.75
2023-02-18T13:28:09.763Z,101173.88
2023-02-18T13:30:48.195Z,101161.69
2023-02-18T13:33:27.972Z,101163.44
2023-02-18T13:36:09.685Z,101166.91
2023-02-18T13:38:54.584Z,101152.94
2023-02-18T13:41:21.442Z,101154.69
2023-02-18T13:43:48.626Z,101152.94
2023-02-18T13:46:19.225Z,101167.75
2023-02-18T13:49:06.698Z,101163.41
2023-02-18T13:51:47.762Z,101162.50
2023-02-18T13:54:17.016Z,101159.03
2023-02-18T13:56:45.700Z,101156.41
2023-02-18T13:59:41.599Z,101157.25
2023-02-18T14:02:20.813Z,101149.41
2023-02-18T14:04:50.743Z,101156.38
2023-02-18T14:07:29.289Z,101151.13
2023-02-18T14:09:58.109Z,101150.22
2023-02-18T14:12:30.700Z,101163.28
2023-02-18T14:14:58.735Z,101142.38
2023-02-18T14:17:25.781Z,101147.59
2023-02-18T14:19:56.594Z,101148.44
2023-02-18T14:22:45.026Z,101147.56
2023-02-18T14:25:11.460Z,101145.84
2023-02-18T14:27:39.908Z,101149.28
2023-02-18T14:30:20.084Z,101141.44
2023-02-18T14:32:47.067Z,101144.03
2023-02-18T14:35:21.760Z,101144.91
2023-02-18T14:37:58.487Z,101145.78
2023-02-18T14:40:37.145Z,101145.75
2023-02-18T14:43:30.070Z,101138.81
2023-02-18T14:46:06.640Z,101151.00
2023-02-18T14:49:18.290Z,101137.06
2023-02-18T14:51:48.118Z,101137.91
2023-02-18T14:54:18.967Z,101128.34
2023-02-18T14:56:55.357Z,101137.06
2023-02-18T14:59:26.880Z,101141.44
2023-02-18T15:01:56.465Z,101136.19
2023-02-18T15:04:24.994Z,101129.19
2023-02-18T15:07:09.192Z,101138.75
2023-02-18T15:09:49.076Z,101141.38
2023-02-18T15:12:25.865Z,101133.53
2023-02-18T15:14:54.580Z,101132.69
2023-02-18T15:17:24.797Z,101149.22
2023-02-18T15:19:54.496Z,101142.22
2023-02-18T15:22:23.816Z,101140.47
2023-02-18T15:24:52.560Z,101135.25
2023-02-18T15:27:23.430Z,101131.78
2023-02-18T15:29:53.323Z,101143.97
2023-02-18T15:32:24.575Z,101138.78
2023-02-18T15:35:01.859Z,101130.94
2023-02-18T15:37:29.792Z,101145.75
2023-02-18T15:39:56.868Z,101147.50
2023-02-18T15:42:29.939Z,101154.47
2023-02-18T15:45:14.488Z,101147.50
2023-02-18T15:47:44.432Z,101153.59
2023-02-18T15:50:23.942Z,101150.97
2023-02-18T15:52:51.985Z,101146.59
2023-02-18T15:55:27.641Z,101155.28
2023-02-18T15:57:54.791Z,101150.94
2023-02-18T16:00:27.119Z,101151.78
2023-02-18T16:03:04.307Z,101151.78
2023-02-18T16:05:32.089Z,101145.72
2023-02-18T16:08:02.142Z,101155.28
2023-02-18T16:10:36.227Z,101147.44
2023-02-18T16:13:04.596Z,101147.44
2023-02-18T16:15:37.391Z,101148.31
2023-02-18T16:18:04.969Z,101150.03
2023-02-18T16:20:37.694Z,101150.91
2023-02-18T16:23:12.522Z,101141.25
2023-02-18T16:25:38.916Z,101149.09
2023-02-18T16:28:13.169Z,101149.09
2023-02-18T16:30:41.599Z,101154.31
2023-02-18T16:33:08.523Z,101152.59
2023-02-18T16:35:49.022Z,101151.72
2023-02-18T16:38:19.938Z,101155.19
2023-02-18T16:40:46.569Z,101149.09
2023-02-18T16:43:25.494Z,101144.75
2023-02-18T16:45:54.150Z,101154.31
2023-02-18T16:48:38.544Z,101150.84
2023-02-18T16:51:09.488Z,101145.59
2023-02-18T16:53:35.986Z,101154.28
2023-02-18T16:56:02.864Z,101149.97
2023-02-18T16:58:29.569Z,101146.47
2023-02-18T17:00:56.209Z,101144.72
2023-02-18T17:03:22.692Z,101137.72
2023-02-18T17:05:49.233Z,101144.72
2023-02-18T17:08:21.208Z,101136.84
2023-02-18T17:10:48.761Z,101137.72
2023-02-18T17:13:19.909Z,101145.53
2023-02-18T17:15:48.213Z,101149.88
2023-02-18T17:18:17.485Z,101151.63
2023-02-18T17:20:45.169Z,101154.28
2023-02-18T17:23:18.104Z,101162.16
2023-02-18T17:25:45.606Z,101156.91
2023-02-18T17:28:12.094Z,101164.75
2023-02-18T17:30:40.361Z,101157.78
2023-02-18T17:33:08.309Z,101156.91
2023-02-18T17:35:34.820Z,101162.13
2023-02-18T17:38:01.362Z,101156.91
2023-02-18T17:40:28.821Z,101152.53
2023-02-18T17:42:56.291Z,101168.19
2023-02-18T17:45:33.871Z,101161.22
2023-02-18T17:48:01.927Z,101169.09
2023-02-18T17:50:29.668Z,101169.97
2023-02-18T17:52:56.164Z,101168.19
2023-02-18T17:55:26.051Z,101176.06
2023-02-18T17:57:53.879Z,101157.78
2023-02-18T18:00:27.936Z,101157.81
2023-02-18T18:02:54.451Z,101164.78
2023-02-18T18:05:24.746Z,101156.09
2023-02-18T18:07:52.010Z,101154.38
2023-02-18T18:10:28.466Z,101151.78
2023-02-18T18:12:55.179Z,101157.91
2023-02-18T18:15:26.697Z,101152.66
2023-02-18T18:17:53.906Z,101153.53
2023-02-18T18:20:21.013Z,101160.53
2023-02-18T18:22:47.932Z,101154.44
2023-02-18T18:25:23.583Z,101162.28
2023-02-18T18:27:52.303Z,101165.78
2023-02-18T18:30:21.635Z,101170.19
2023-02-18T18:32:48.128Z,101163.19
2023-02-18T18:35:19.897Z,101159.72
2023-02-18T18:37:46.679Z,101158.84
2023-02-18T18:40:13.114Z,101171.03
2023-02-18T18:42:39.628Z,101158.84
2023-02-18T18:45:06.676Z,101157.97
2023-02-18T18:47:33.139Z,101160.59
2023-02-18T18:49:59.604Z,101153.63
2023-02-18T18:52:26.124Z,101154.50
2023-02-18T18:54:52.800Z,101151.88
2023-02-18T18:57:19.241Z,101153.63
2023-02-18T18:59:45.761Z,101151.03
2023-02-18T19:02:17.054Z,101153.66
2023-02-18T19:04:43.509Z,101146.69
2023-02-18T19:07:09.960Z,101139.75
2023-02-18T19:09:36.481Z,101142.34
2023-02-18T19:12:03.028Z,101151.09
2023-02-18T19:14:29.454Z,101147.59
2023-02-18T19:16:56.143Z,101148.44
2023-02-18T19:19:24.637Z,101147.59
2023-02-18T19:21:52.876Z,101135.38
2023-02-18T19:24:19.348Z,101143.22
2023-02-18T19:26:45.802Z,101134.53
2023-02-18T19:29:12.294Z,101138.88
2023-02-18T19:31:38.839Z,101141.50
2023-02-18T19:34:05.390Z,101143.19
2023-02-18T19:36:31.852Z,101142.28
2023-02-18T19:38:58.269Z,101143.19
2023-02-18T19:41:24.887Z,101137.94
2023-02-18T19:43:51.503Z,101141.41
2023-02-18T19:46:18.817Z,101142.28
2023-02-18T19:48:52.626Z,101142.28
2023-02-18T19:51:21.272Z,101146.63
2023-02-18T19:53:47.737Z,101139.69
2023-02-18T19:56:14.176Z,101137.06
2023-02-18T19:58:41.009Z,101140.53
2023-02-18T20:01:25.738Z,101134.44
2023-02-18T20:03:53.587Z,101138.78
2023-02-18T20:06:21.897Z,101136.19
2023-02-18T20:08:48.638Z,101130.94
2023-02-18T20:11:15.271Z,101127.41
2023-02-18T20:13:42.113Z,101135.25
2023-02-18T20:16:09.893Z,101130.03
2023-02-18T20:18:36.330Z,101111.72
2023-02-18T20:21:02.812Z,101120.41
2023-02-18T20:23:29.273Z,101126.53
2023-02-18T20:25:55.780Z,101116.06
2023-02-18T20:28:22.237Z,101116.94
2023-02-18T20:30:48.700Z,101109.09
2023-02-18T20:33:15.151Z,101109.09
2023-02-18T20:35:41.580Z,101111.72
2023-02-18T20:38:08.013Z,101112.59
2023-02-18T20:40:34.451Z,101105.63
2023-02-18T20:43:00.939Z,101106.53
2023-02-18T20:45:27.388Z,101103.00
2023-02-18T20:47:53.810Z,101106.50
2023-02-18T20:50:21.719Z,101103.91
2023-02-18T20:52:48.196Z,101101.28
2023-02-18T20:55:14.720Z,101106.53
2023-02-18T20:57:41.203Z,101094.31
2023-02-18T21:00:08.323Z,101108.28
2023-02-18T21:02:34.859Z,101097.78
2023-02-18T21:05:01.400Z,101094.28
2023-02-18T21:07:28.087Z,101096.03
2023-02-18T21:09:54.501Z,101095.16
2023-02-18T21:12:20.967Z,101096.94
2023-02-18T21:14:47.418Z,101085.63
2023-02-18T21:17:14.183Z,101081.25
2023-02-18T21:19:41.252Z,101082.13
2023-02-18T21:22:07.678Z,101073.44
2023-02-18T21:24:34.146Z,101057.75
2023-02-18T21:27:00.571Z,101061.22
2023-02-18T21:29:27.088Z,101057.72
2023-02-18T21:31:53.544Z,101049.91
2023-02-18T21:34:21.056Z,101062.13
2023-02-18T21:36:47.497Z,101063.88
2023-02-18T21:39:15.202Z,101073.44
2023-02-18T21:41:41.676Z,101066.47
2023-02-18T21:44:09.826Z,101077.81
2023-02-18T21:46:37.165Z,101076.94
2023-02-18T21:49:07.211Z,101081.28
2023-02-18T21:51:59.257Z,101076.06
2023-02-18T21:54:39.052Z,101073.44
2023-02-18T21:57:11.006Z,101077.78
2023-02-18T21:59:37.759Z,101082.13
2023-02-18T22:02:05.383Z,101073.41
2023-02-18T22:04:34.775Z,101072.53
2023-02-18T22:07:02.383Z,101076.00
2023-02-18T22:09:29.159Z,101066.41
2023-02-18T22:11:55.843Z,101065.56
2023-02-18T22:14:22.424Z,101064.66
2023-02-18T22:16:49.042Z,101065.53
2023-02-18T22:19:15.535Z,101065.56
2023-02-18T22:21:42.223Z,101064.69
2023-02-18T22:24:10.921Z,101055.13
2023-02-18T22:26:37.567Z,101042.91
2023-02-18T22:29:04.000Z,101044.66
2023-02-18T22:31:31.357Z,101017.66
2023-02-18T22:33:59.312Z,101009.81
2023-02-18T22:36:27.538Z,101008.94
2023-02-18T22:38:54.411Z,101003.72
2023-02-18T22:41:23.356Z,100998.47
2023-02-18T22:43:56.899Z,100994.13
2023-02-18T22:46:24.176Z,101011.59
2023-02-18T22:48:51.279Z,101007.22
2023-02-18T22:51:24.920Z,100994.16
2023-02-18T22:53:52.775Z,100997.63
2023-02-18T22:56:21.014Z,100989.81
2023-02-18T22:58:49.884Z,101001.13
2023-02-18T23:01:22.482Z,101022.91
2023-02-18T23:03:50.275Z,101029.00
2023-02-18T23:06:17.826Z,101020.25
2023-02-18T23:08:44.520Z,101009.81
2023-02-18T23:11:13.377Z,101007.19
2023-02-18T23:13:40.226Z,101015.03
2023-02-18T23:16:11.133Z,101028.09
2023-02-18T23:18:37.904Z,101025.47
2023-02-18T23:21:22.547Z,101028.09
2023-02-18T23:23:51.811Z,101035.94
2023-02-18T23:26:23.627Z,101029.84
2023-02-18T23:28:52.152Z,101034.22
2023-02-18T23:31:20.351Z,101032.41
2023-02-18T23:33:51.378Z,101027.22
2023-02-18T23:36:20.766Z,101020.19
2023-02-18T23:38:52.487Z,101019.28
2023-02-18T23:41:19.458Z,101007.97
2023-02-18T23:43:46.887Z,101009.72
2023-02-18T23:46:14.499Z,101006.22
2023-02-18T23:48:41.448Z,101002.75
2023-02-18T23:51:10.029Z,101006.19
2023-02-18T23:53:37.717Z,100999.25
2023-02-18T23:56:09.575Z,101004.47
2023-02-18T23:58:36.167Z,100995.75
